createdAt,value
2023-02-14T00:01:45.696Z,101563.69
2023-02-14T00:04:14.242Z,101558.66
2023-02-14T00:06:42.883Z,101555.71
2023-02-14T00:09:14.657Z,101556.08
2023-02-14T00:11:49.123Z,101546.70
2023-02-14T00:14:36.398Z,101536.30
2023-02-14T00:17:05.055Z,101535.09
2023-02-14T00:19:34.965Z,101526.42
2023-02-14T00:22:04.128Z,101524.34
2023-02-14T00:24:33.586Z,101520.89
2023-02-14T00:27:02.671Z,101518.96
2023-02-14T00:37:00.996Z,101534.69
2023-02-14T00:39:29.396Z,101531.56
2023-02-14T00:41:57.844Z,101530.70
2023-02-14T00:44:26.548Z,101519.59
2023-02-14T00:46:54.963Z,101513.33
2023-02-14T00:49:24.863Z,101502.23
2023-02-14T00:51:53.785Z,101495.97
2023-02-14T00:54:22.905Z,101491.98
2023-02-14T00:56:52.519Z,101495.27
2023-02-14T00:59:20.755Z,101495.45
2023-02-14T01:01:50.347Z,101498.77
2023-02-14T01:04:18.636Z,101504.29
2023-02-14T01:06:48.054Z,101502.74
2023-02-14T01:09:16.307Z,101489.38
2023-02-14T01:11:44.832Z,101485.20
2023-02-14T01:14:17.826Z,101476.34
2023-02-14T01:16:49.995Z,101477.04
2023-02-14T01:19:18.972Z,101474.79
2023-02-14T01:21:47.307Z,101475.30
2023-02-14T01:24:15.536Z,101467.84
2023-02-14T01:26:44.966Z,101467.15
2023-02-14T01:29:13.428Z,101465.75
2023-02-14T01:31:41.822Z,101465.76
2023-02-14T01:34:10.217Z,101461.05
2023-02-14T01:36:40.901Z,101458.27
2023-02-14T01:39:14.438Z,101456.02
2023-02-14T01:41:43.610Z,101459.30
2023-02-14T01:44:16.010Z,101462.26
2023-02-14T01:46:45.103Z,101459.30
2023-02-14T01:49:16.268Z,101454.96
2023-02-14T01:51:52.272Z,101448.38
2023-02-14T01:54:22.548Z,101449.41
2023-02-14T01:56:52.972Z,101447.86
2023-02-14T01:59:30.541Z,101448.04
2023-02-14T02:01:58.858Z,101453.21
2023-02-14T02:04:30.973Z,101456.17
2023-02-14T02:07:03.111Z,101453.38
2023-02-14T02:09:35.095Z,101447.50
2023-02-14T02:12:04.129Z,101451.49
2023-02-14T02:14:32.532Z,101448.71
2023-02-14T02:17:16.144Z,101443.67
2023-02-14T02:20:03.812Z,101443.51
2023-02-14T02:23:00.445Z,101444.02
2023-02-14T02:25:53.248Z,101436.91
2023-02-14T02:28:45.945Z,101436.73
2023-02-14T02:31:31.570Z,101439.00
2023-02-14T02:34:25.144Z,101434.66
2023-02-14T02:37:26.472Z,101432.94
2023-02-14T02:40:07.872Z,101425.15
2023-02-14T02:42:46.703Z,101426.05
2023-02-14T02:46:07.778Z,101426.73
2023-02-14T02:49:12.197Z,101425.36
2023-02-14T02:52:27.172Z,101418.41
2023-02-14T02:54:59.357Z,101412.71
2023-02-14T02:57:57.826Z,101408.38
2023-02-14T03:00:27.100Z,101406.98
2023-02-14T03:03:14.518Z,101400.04
2023-02-14T03:05:43.839Z,101394.66
2023-02-14T03:08:12.085Z,101393.61
2023-02-14T03:10:40.454Z,101394.84
2023-02-14T03:13:38.362Z,101395.70
2023-02-14T03:16:26.322Z,101398.13
2023-02-14T03:19:07.429Z,101393.80
2023-02-14T03:21:48.575Z,101388.77
2023-02-14T03:24:24.951Z,101382.17
2023-02-14T03:27:12.177Z,101382.70
2023-02-14T03:29:45.454Z,101374.55
2023-02-14T03:32:26.803Z,101371.77
2023-02-14T03:35:18.168Z,101370.92
2023-02-14T03:41:02.956Z,101380.81
2023-02-14T03:43:36.777Z,101371.08
2023-02-14T03:46:20.856Z,101371.42
2023-02-14T03:48:49.355Z,101369.38
2023-02-14T03:51:17.776Z,101365.05
2023-02-14T03:53:48.181Z,101363.33
2023-02-14T03:56:32.409Z,101361.08
2023-02-14T03:59:15.251Z,101356.58
2023-02-14T04:01:49.994Z,101357.09
2023-02-14T04:04:21.521Z,101352.94
2023-02-14T04:07:16.053Z,101354.52
2023-02-14T04:09:44.413Z,101359.55
2023-02-14T04:12:14.729Z,101360.05
2023-02-14T04:14:43.706Z,101357.27
2023-02-14T04:20:37.516Z,101349.99
2023-02-14T04:23:07.762Z,101348.60
2023-02-14T04:25:40.632Z,101350.86
2023-02-14T04:28:09.441Z,101350.35
2023-02-14T04:30:38.573Z,101346.70
2023-02-14T04:33:08.333Z,101346.02
2023-02-14T04:35:36.984Z,101352.09
2023-02-14T04:38:05.198Z,101351.23
2023-02-14T04:40:34.482Z,101356.98
2023-02-14T04:43:04.818Z,101365.30
2023-02-14T04:45:33.797Z,101366.67
2023-02-14T04:48:02.236Z,101372.92
2023-02-14T04:50:30.597Z,101378.14
2023-02-14T04:52:59.579Z,101377.96
2023-02-14T04:55:27.929Z,101379.02
2023-02-14T04:57:56.394Z,101383.69
2023-02-14T05:00:25.919Z,101390.11
2023-02-14T05:02:54.393Z,101391.50
2023-02-14T05:05:22.959Z,101390.63
2023-02-14T05:07:51.123Z,101392.70
2023-02-14T05:10:20.281Z,101396.34
2023-02-14T05:13:14.980Z,101395.11
2023-02-14T05:15:48.001Z,101394.41
2023-02-14T05:18:16.344Z,101394.94
2023-02-14T05:20:44.716Z,101399.96
2023-02-14T05:23:13.960Z,101398.56
2023-02-14T05:25:43.100Z,101399.60
2023-02-14T05:28:11.621Z,101402.20
2023-02-14T05:30:40.296Z,101401.51
2023-02-14T05:33:10.336Z,101401.50
2023-02-14T05:35:39.791Z,101402.38
2023-02-14T05:38:13.663Z,101399.58
2023-02-14T05:40:42.682Z,101401.83
2023-02-14T05:43:11.014Z,101398.35
2023-02-14T05:45:39.282Z,101396.61
2023-02-14T05:48:08.102Z,101397.64
2023-02-14T05:50:36.644Z,101395.92
2023-02-14T05:53:05.656Z,101401.48
2023-02-14T05:55:34.311Z,101409.80
2023-02-14T05:58:03.287Z,101410.48
2023-02-14T06:00:39.368Z,101410.85
2023-02-14T06:03:10.022Z,101414.13
2023-02-14T06:05:38.966Z,101416.55
2023-02-14T06:08:07.409Z,101417.08
2023-02-14T06:10:35.636Z,101415.16
2023-02-14T06:13:09.110Z,101415.34
2023-02-14T06:15:38.107Z,101416.02
2023-02-14T06:18:06.688Z,101419.30
2023-02-14T06:20:36.375Z,101421.70
2023-02-14T06:23:05.037Z,101422.06
2023-02-14T06:25:33.569Z,101418.42
2023-02-14T06:28:01.836Z,101423.86
2023-02-14T06:30:30.654Z,101423.54
2023-02-14T06:32:59.951Z,101432.59
2023-02-14T06:35:28.688Z,101431.73
2023-02-14T06:37:57.817Z,101433.30
2023-02-14T06:40:26.026Z,101436.06
2023-02-14T06:42:54.636Z,101433.77
2023-02-14T06:45:22.937Z,101432.50
2023-02-14T06:47:51.222Z,101435.24
2023-02-14T06:50:19.602Z,101434.36
2023-02-14T06:52:49.111Z,101437.11
2023-02-14T06:55:21.118Z,101437.46
2023-02-14T06:57:50.935Z,101440.42
2023-02-14T07:00:21.851Z,101442.22
2023-02-14T07:02:50.401Z,101445.91
2023-02-14T07:05:19.320Z,101452.38
2023-02-14T07:07:47.791Z,101453.61
2023-02-14T07:10:16.433Z,101454.66
2023-02-14T07:12:44.938Z,101460.40
2023-02-14T07:15:13.391Z,101461.64
2023-02-14T07:17:42.078Z,101469.64
2023-02-14T07:20:11.653Z,101469.45
2023-02-14T07:22:39.958Z,101469.10
2023-02-14T07:25:08.645Z,101473.77
2023-02-14T07:27:37.350Z,101472.73
2023-02-14T07:30:06.723Z,101472.05
2023-02-14T07:32:37.655Z,101471.54
2023-02-14T07:35:06.931Z,101478.15
2023-02-14T07:37:35.630Z,101478.85
2023-02-14T07:40:04.280Z,101485.98
2023-02-14T07:42:32.699Z,101478.19
2023-02-14T07:45:09.458Z,101483.77
2023-02-14T07:47:50.093Z,101489.69
2023-02-14T07:50:18.960Z,101495.09
2023-02-14T07:52:47.540Z,101496.67
2023-02-14T07:55:41.947Z,101494.64
2023-02-14T07:58:10.434Z,101503.00
2023-02-14T08:00:42.351Z,101506.52
2023-02-14T08:03:13.995Z,101511.42
2023-02-14T08:06:07.546Z,101522.23
2023-02-14T08:08:36.005Z,101527.30
2023-02-14T08:11:52.841Z,101536.54
2023-02-14T08:14:22.264Z,101548.92
2023-02-14T08:16:50.588Z,101551.95
2023-02-14T08:19:20.311Z,101564.90
2023-02-14T08:21:48.775Z,101578.23
2023-02-14T08:24:17.193Z,101591.40
2023-02-14T08:26:45.614Z,101600.16
2023-02-14T08:29:16.068Z,101612.39
2023-02-14T08:32:11.143Z,101620.22
2023-02-14T08:34:39.590Z,101624.18
2023-02-14T08:37:07.777Z,101625.20
2023-02-14T08:39:36.007Z,101626.04
2023-02-14T08:42:04.752Z,101626.92
2023-02-14T08:44:32.942Z,101634.73
2023-02-14T08:47:01.645Z,101638.57
2023-02-14T08:49:30.166Z,101642.55
2023-02-14T08:52:24.411Z,101646.05
2023-02-14T08:54:52.582Z,101651.08
2023-02-14T08:57:24.305Z,101651.42
2023-02-14T08:59:54.018Z,101655.95
2023-02-14T09:02:27.637Z,101661.74
2023-02-14T09:04:55.884Z,101667.89
2023-02-14T09:07:24.355Z,101672.82
2023-02-14T09:09:52.904Z,101669.71
2023-02-14T09:12:21.838Z,101674.27
2023-02-14T09:14:53.570Z,101681.61
2023-02-14T09:17:22.618Z,101687.24
2023-02-14T09:19:50.879Z,101687.65
2023-02-14T09:22:27.586Z,101696.95
2023-02-14T09:24:55.872Z,101702.91
2023-02-14T09:27:24.080Z,101709.79
2023-02-14T09:29:52.365Z,101718.73
2023-02-14T09:34:18.651Z,101733.70
2023-02-14T09:36:46.911Z,101756.33
2023-02-14T09:39:16.180Z,101756.02
2023-02-14T09:42:16.180Z,101760.10
2023-02-14T09:44:57.433Z,101773.75
2023-02-14T09:47:54.598Z,101784.55
2023-02-14T09:50:24.841Z,101801.88
2023-02-14T09:53:21.634Z,101816.75
2023-02-14T09:55:59.150Z,101831.63
2023-02-14T09:58:54.497Z,101834.27
2023-02-14T10:01:37.016Z,101845.63
2023-02-14T10:04:05.299Z,101839.29
2023-02-14T10:06:46.912Z,101830.53
2023-02-14T10:09:22.503Z,101838.73
2023-02-14T10:11:51.170Z,101843.52
2023-02-14T10:14:29.858Z,101850.94
2023-02-14T10:17:24.058Z,101849.90
2023-02-14T10:20:28.075Z,101853.14
2023-02-14T10:30:28.522Z,101858.61
2023-02-14T10:33:17.869Z,101882.76
2023-02-14T10:35:56.264Z,101874.46
2023-02-14T10:38:57.650Z,101872.47
2023-02-14T10:41:26.490Z,101872.23
2023-02-14T10:44:18.046Z,101859.22
2023-02-14T10:47:00.082Z,101865.04
2023-02-14T10:49:41.679Z,101859.02
2023-02-14T10:52:31.736Z,101856.23
2023-02-14T10:56:12.844Z,101849.98
2023-02-14T10:58:41.426Z,101857.59
2023-02-14T11:01:35.194Z,101851.59
2023-02-14T11:04:06.698Z,101854.61
2023-02-14T11:06:39.358Z,101848.86
2023-02-14T11:09:07.774Z,101842.89
2023-02-14T11:11:43.705Z,101832.70
2023-02-14T11:14:39.324Z,101820.90
2023-02-14T11:17:29.867Z,101803.88
2023-02-14T11:20:02.808Z,101793.30
2023-02-14T11:22:32.932Z,101796.42
2023-02-14T11:25:31.221Z,101787.39
2023-02-14T11:28:06.187Z,101779.13
2023-02-14T11:30:42.133Z,101767.97
2023-02-14T11:33:43.173Z,101768.98
2023-02-14T11:36:13.336Z,101790.60
2023-02-14T11:38:41.979Z,101784.35
2023-02-14T11:41:13.380Z,101761.92
2023-02-14T11:43:43.123Z,101749.59
2023-02-14T11:46:15.921Z,101733.11
2023-02-14T11:49:23.097Z,101716.77
2023-02-14T11:51:52.584Z,101699.73
2023-02-14T11:54:29.812Z,101683.95
2023-02-14T11:57:06.334Z,101664.16
2023-02-14T11:59:43.697Z,101653.63
2023-02-14T12:02:25.370Z,101639.64
2023-02-14T12:05:23.739Z,101632.66
2023-02-14T12:07:53.477Z,101629.69
2023-02-14T12:10:23.264Z,101619.40
2023-02-14T12:13:09.155Z,101608.90
2023-02-14T12:15:44.632Z,101599.60
2023-02-14T12:18:40.773Z,101582.48
2023-02-14T12:21:17.440Z,101583.66
2023-02-14T12:24:33.208Z,101572.52
2023-02-14T12:27:30.911Z,101571.96
2023-02-14T12:30:20.836Z,101566.94
2023-02-14T12:32:56.991Z,101567.49
2023-02-14T12:35:47.807Z,101567.38
2023-02-14T12:38:19.728Z,101571.63
2023-02-14T12:41:12.485Z,101569.59
2023-02-14T12:43:51.964Z,101574.28
2023-02-14T12:46:37.196Z,101574.25
2023-02-14T12:49:25.268Z,101564.44
2023-02-14T12:52:26.196Z,101558.98
2023-02-14T12:55:10.022Z,101556.66
2023-02-14T12:57:57.535Z,101549.30
2023-02-14T13:00:54.581Z,101542.98
2023-02-14T13:03:48.547Z,101542.26
2023-02-14T13:06:28.534Z,101533.38
2023-02-14T13:09:34.966Z,101528.48
2023-02-14T13:12:45.907Z,101530.20
2023-02-14T13:15:29.673Z,101524.61
2023-02-14T13:18:22.632Z,101517.29
2023-02-14T13:20:56.048Z,101519.70
2023-02-14T13:26:27.888Z,101518.12
2023-02-14T13:29:03.264Z,101512.52
2023-02-14T13:31:31.994Z,101511.10
2023-02-14T13:34:22.142Z,101503.45
2023-02-14T13:36:50.564Z,101509.36
2023-02-14T13:40:01.619Z,101507.62
2023-02-14T13:43:13.284Z,101515.93
2023-02-14T13:45:41.634Z,101516.44
2023-02-14T13:48:19.993Z,101510.89
2023-02-14T13:50:56.209Z,101507.58
2023-02-14T13:53:37.204Z,101503.92
2023-02-14T13:56:34.753Z,101506.01
2023-02-14T13:59:34.586Z,101505.84
2023-02-14T14:02:30.081Z,101505.67
2023-02-14T14:05:56.224Z,101504.43
2023-02-14T14:08:25.202Z,101509.80
2023-02-14T14:11:01.345Z,101502.64
2023-02-14T14:13:46.546Z,101497.91
2023-02-14T14:16:24.578Z,101498.41
2023-02-14T14:19:05.433Z,101500.13
2023-02-14T14:21:43.783Z,101498.02
2023-02-14T14:24:21.403Z,101496.79
2023-02-14T14:27:28.570Z,101497.65
2023-02-14T14:29:59.196Z,101497.45
2023-02-14T14:32:54.356Z,101494.30
2023-02-14T14:35:26.313Z,101494.27
2023-02-14T14:37:56.658Z,101486.94
2023-02-14T14:40:30.724Z,101491.93
2023-02-14T14:43:36.264Z,101489.84
2023-02-14T14:46:29.694Z,101488.67
2023-02-14T14:48:57.917Z,101477.19
2023-02-14T14:51:31.281Z,101468.35
2023-02-14T14:54:06.269Z,101464.77
2023-02-14T14:56:37.470Z,101462.76
2023-02-14T14:59:18.193Z,101465.14
2023-02-14T15:01:50.134Z,101467.02
2023-02-14T15:04:20.966Z,101465.24
2023-02-14T15:06:49.935Z,101471.67
2023-02-14T15:09:24.093Z,101469.06
2023-02-14T15:12:11.647Z,101471.51
2023-02-14T15:14:43.128Z,101478.27
2023-02-14T15:17:40.977Z,101481.05
2023-02-14T15:20:39.890Z,101486.57
2023-02-14T15:23:21.233Z,101493.31
2023-02-14T15:25:50.480Z,101500.92
2023-02-14T15:28:29.182Z,101505.24
2023-02-14T15:31:00.372Z,101508.54
2023-02-14T15:33:31.503Z,101515.87
2023-02-14T15:36:03.712Z,101519.53
2023-02-14T15:38:32.300Z,101529.44
2023-02-14T15:41:01.226Z,101534.30
2023-02-14T15:43:36.546Z,101545.75
2023-02-14T15:46:36.141Z,101552.84
2023-02-14T15:49:11.538Z,101552.83
2023-02-14T15:51:40.004Z,101556.08
2023-02-14T15:54:35.640Z,101556.92
2023-02-14T15:57:04.714Z,101569.56
2023-02-14T15:59:34.226Z,101565.36
2023-02-14T16:02:27.591Z,101567.05
2023-02-14T16:05:22.700Z,101571.55
2023-02-14T16:08:04.832Z,101583.86
2023-02-14T16:10:39.406Z,101582.45
2023-02-14T16:13:14.004Z,101586.26
2023-02-14T16:16:14.469Z,101589.38
2023-02-14T16:18:43.730Z,101591.66
2023-02-14T16:21:26.127Z,101594.11
2023-02-14T16:24:07.285Z,101602.44
2023-02-14T16:26:39.980Z,101602.29
2023-02-14T16:29:11.953Z,101609.77
2023-02-14T16:32:14.727Z,101612.73
2023-02-14T16:34:44.038Z,101618.84
2023-02-14T16:37:23.270Z,101619.88
2023-02-14T16:39:54.260Z,101623.86
2023-02-14T16:42:22.763Z,101628.03
2023-02-14T16:44:51.782Z,101631.86
2023-02-14T16:47:21.388Z,101637.06
2023-02-14T16:49:50.828Z,101642.27
2023-02-14T16:52:23.620Z,101648.02
2023-02-14T16:54:52.458Z,101654.27
2023-02-14T16:57:30.618Z,101663.29
2023-02-14T16:59:59.272Z,101668.34
2023-02-14T17:02:28.674Z,101677.88
2023-02-14T17:04:57.552Z,101682.88
2023-02-14T17:07:25.977Z,101686.70
2023-02-14T17:09:59.133Z,101689.95
2023-02-14T17:12:30.216Z,101696.20
2023-02-14T17:15:00.730Z,101703.31
2023-02-14T17:17:34.452Z,101704.17
2023-02-14T17:20:04.819Z,101708.16
2023-02-14T17:22:34.686Z,101712.84
2023-02-14T17:25:04.530Z,101716.30
2023-02-14T17:27:32.985Z,101727.06
2023-02-14T17:30:01.309Z,101732.83
2023-02-14T17:32:29.904Z,101734.21
2023-02-14T17:35:05.125Z,101735.95
2023-02-14T17:37:59.066Z,101741.36
2023-02-14T17:40:30.728Z,101746.41
2023-02-14T17:42:59.145Z,101751.08
2023-02-14T17:45:28.399Z,101753.66
2023-02-14T17:47:56.842Z,101756.77
2023-02-14T17:50:28.932Z,101769.80
2023-02-14T17:52:57.304Z,101773.06
2023-02-14T17:55:26.243Z,101775.98
2023-02-14T17:57:54.610Z,101776.81
2023-02-14T18:00:48.410Z,101777.97
2023-02-14T18:03:42.915Z,101790.77
2023-02-14T18:07:01.358Z,101793.02
2023-02-14T18:09:31.070Z,101799.92
2023-02-14T18:11:59.981Z,101791.41
2023-02-14T18:14:35.477Z,101800.96
2023-02-14T18:17:06.441Z,101803.21
2023-02-14T18:19:35.178Z,101809.13
2023-02-14T18:22:04.179Z,101811.39
2023-02-14T18:24:32.846Z,101812.42
2023-02-14T18:27:01.661Z,101815.52
2023-02-14T18:29:30.215Z,101816.05
2023-02-14T18:32:00.626Z,101818.80
2023-02-14T18:34:33.236Z,101819.97
2023-02-14T18:37:04.609Z,101829.88
2023-02-14T18:39:33.876Z,101833.20
2023-02-14T18:42:04.745Z,101833.39
2023-02-14T18:44:33.782Z,101836.17
2023-02-14T18:47:02.971Z,101834.05
2023-02-14T18:49:31.645Z,101840.30
2023-02-14T18:52:00.865Z,101844.14
2023-02-14T18:54:30.021Z,101852.27
2023-02-14T18:56:58.797Z,101851.03
2023-02-14T18:59:28.402Z,101855.17
2023-02-14T19:01:57.400Z,101863.69
2023-02-14T19:04:25.710Z,101867.84
2023-02-14T19:06:53.964Z,101865.07
2023-02-14T19:09:23.023Z,101866.61
2023-02-14T19:12:00.411Z,101865.23
2023-02-14T19:14:29.658Z,101863.27
2023-02-14T19:17:01.518Z,101864.63
2023-02-14T19:19:30.082Z,101865.12
2023-02-14T19:21:59.598Z,101872.05
2023-02-14T19:24:27.832Z,101877.26
2023-02-14T19:26:59.983Z,101876.22
2023-02-14T19:29:28.832Z,101879.36
2023-02-14T19:31:58.545Z,101874.84
2023-02-14T19:34:29.667Z,101879.20
2023-02-14T19:37:02.734Z,101885.29
2023-02-14T19:39:31.826Z,101884.73
2023-02-14T19:42:01.392Z,101887.83
2023-02-14T19:44:34.478Z,101888.19
2023-02-14T19:47:15.706Z,101893.73
2023-02-14T19:49:53.366Z,101896.86
2023-02-14T19:52:26.847Z,101890.64
2023-02-14T19:54:58.383Z,101897.59
2023-02-14T19:57:27.010Z,101899.86
2023-02-14T19:59:58.560Z,101898.65
2023-02-14T20:02:28.789Z,101902.85
2023-02-14T20:05:04.590Z,101903.06
2023-02-14T20:08:00.393Z,101900.64
2023-02-14T20:10:38.481Z,101903.52
2023-02-14T20:13:07.133Z,101909.75
2023-02-14T20:16:07.396Z,101907.84
2023-02-14T20:18:35.951Z,101910.95
2023-02-14T20:21:04.311Z,101911.45
2023-02-14T20:23:33.450Z,101909.67
2023-02-14T20:26:01.899Z,101906.56
2023-02-14T20:28:31.611Z,101903.81
2023-02-14T20:31:00.109Z,101908.88
2023-02-14T20:33:29.464Z,101915.48
2023-02-14T20:36:01.816Z,101918.13
2023-02-14T20:38:30.533Z,101910.85
2023-02-14T20:41:03.728Z,101916.77
2023-02-14T20:43:35.307Z,101927.36
2023-02-14T20:46:04.054Z,101925.14
2023-02-14T20:48:34.701Z,101935.38
2023-02-14T20:51:16.009Z,101931.94
2023-02-14T20:53:46.240Z,101937.18
2023-02-14T20:56:14.577Z,101933.59
2023-02-14T20:58:43.292Z,101934.80
2023-02-14T21:01:16.657Z,101944.66
2023-02-14T21:03:47.050Z,101942.03
2023-02-14T21:06:15.439Z,101942.02
2023-02-14T21:08:44.276Z,101938.38
2023-02-14T21:11:14.661Z,101940.95
2023-02-14T21:13:43.406Z,101939.86
2023-02-14T21:16:15.614Z,101937.58
2023-02-14T21:18:48.852Z,101938.56
2023-02-14T21:21:22.249Z,101938.20
2023-02-14T21:23:53.352Z,101933.23
2023-02-14T21:26:21.977Z,101936.95
2023-02-14T21:28:50.654Z,101931.13
2023-02-14T21:31:21.097Z,101934.88
2023-02-14T21:33:51.518Z,101937.92
2023-02-14T21:36:20.766Z,101932.79
2023-02-14T21:38:49.355Z,101923.52
2023-02-14T21:41:19.666Z,101932.69
2023-02-14T21:43:50.203Z,101928.83
2023-02-14T21:46:27.516Z,101934.33
2023-02-14T21:49:14.681Z,101931.84
2023-02-14T21:52:26.664Z,101955.96
2023-02-14T21:54:54.878Z,101971.48
2023-02-14T21:57:23.476Z,101959.98
2023-02-14T21:59:52.152Z,101953.63
2023-02-14T22:02:20.415Z,101947.45
2023-02-14T22:04:48.631Z,101943.55
2023-02-14T22:07:17.127Z,101946.75
2023-02-14T22:09:48.568Z,101949.66
2023-02-14T22:12:16.819Z,101951.06
2023-02-14T22:14:45.101Z,101953.20
2023-02-14T22:17:13.943Z,101957.91
2023-02-14T22:19:42.408Z,101951.70
2023-02-14T22:22:10.704Z,101957.58
2023-02-14T22:24:38.898Z,101956.31
2023-02-14T22:27:07.138Z,101960.11
2023-02-14T22:29:35.689Z,101962.55
2023-02-14T22:32:04.446Z,101960.10
2023-02-14T22:34:33.191Z,101956.25
2023-02-14T22:37:02.072Z,101960.73
2023-02-14T22:39:30.767Z,101955.99
2023-02-14T22:41:59.034Z,101956.77
2023-02-14T22:44:27.632Z,101957.98
2023-02-14T22:46:56.248Z,101959.23
2023-02-14T22:49:50.344Z,101964.84
2023-02-14T22:52:18.549Z,101971.77
2023-02-14T22:54:47.109Z,101974.09
2023-02-14T22:57:15.321Z,101980.23
2023-02-14T22:59:43.479Z,101980.11
2023-02-14T23:02:12.827Z,101981.27
2023-02-14T23:04:41.376Z,101982.62
2023-02-14T23:07:12.754Z,101978.55
2023-02-14T23:09:43.565Z,101976.90
2023-02-14T23:12:31.897Z,101985.17
2023-02-14T23:15:20.048Z,101985.38
2023-02-14T23:18:06.805Z,101983.73
2023-02-14T23:20:54.522Z,101985.73
2023-02-14T23:23:23.867Z,101983.98
2023-02-14T23:25:52.140Z,101988.40
2023-02-14T23:28:20.750Z,101991.80
2023-02-14T23:30:49.034Z,101999.73
2023-02-14T23:33:17.207Z,102008.04
2023-02-14T23:35:45.796Z,102013.15
2023-02-14T23:38:14.448Z,102020.53
2023-02-14T23:41:03.170Z,102026.39
2023-02-14T23:43:31.429Z,102028.62
2023-02-14T23:46:00.700Z,102025.77
2023-02-14T23:48:30.113Z,102028.95
2023-02-14T23:51:01.120Z,102028.83
2023-02-14T23:53:29.572Z,102037.56
2023-02-14T23:56:02.849Z,102035.34
2023-02-14T23:58:31.801Z,102039.89
